createdAt,value
2022-10-24T00:01:14.636Z,31.70
2022-10-24T00:03:42.071Z,40.30
2022-10-24T00:06:10.600Z,31.73
2022-10-24T00:08:38.736Z,34.93
2022-10-24T00:11:14.707Z,29.77
2022-10-24T00:13:43.074Z,28.13
2022-10-24T00:16:10.724Z,26.63
2022-10-24T00:18:38.069Z,32.87
2022-10-24T00:21:05.566Z,27.17
2022-10-24T00:23:32.467Z,27.43
2022-10-24T00:26:04.332Z,26.60
2022-10-24T00:28:35.795Z,25.90
2022-10-24T00:31:04.042Z,29.90
2022-10-24T00:33:31.206Z,30.00
2022-10-24T00:35:58.434Z,28.37
2022-10-24T00:38:25.545Z,30.83
2022-10-24T00:40:52.562Z,27.83
2022-10-24T00:43:26.557Z,29.87
2022-10-24T00:45:58.620Z,27.70
2022-10-24T00:48:33.418Z,26.23
2022-10-24T00:51:25.378Z,30.97
2022-10-24T00:56:34.984Z,28.03
2022-10-24T00:59:05.185Z,29.03
2022-10-24T01:01:34.122Z,26.87
2022-10-24T01:04:01.815Z,28.67
2022-10-24T01:06:40.311Z,29.63
2022-10-24T01:09:29.159Z,31.03
2022-10-24T01:12:35.149Z,27.87
2022-10-24T01:15:17.268Z,29.97
2022-10-24T01:18:08.872Z,31.27
2022-10-24T01:20:53.686Z,33.67
2022-10-24T01:23:29.469Z,27.63
2022-10-24T01:26:32.777Z,32.27
2022-10-24T01:29:37.148Z,29.80
2022-10-24T01:32:41.952Z,28.20
2022-10-24T01:35:23.189Z,30.40
2022-10-24T01:38:02.628Z,29.13
2022-10-24T01:40:36.704Z,26.70
2022-10-24T01:43:10.143Z,29.67
2022-10-24T01:45:40.419Z,26.00
2022-10-24T01:48:12.174Z,25.40
2022-10-24T01:50:40.864Z,29.50
2022-10-24T01:53:09.046Z,27.43
2022-10-24T01:55:39.118Z,33.83
2022-10-24T01:58:07.588Z,32.80
2022-10-24T02:00:35.081Z,28.20
2022-10-24T02:03:04.122Z,27.03
2022-10-24T02:05:39.826Z,28.83
2022-10-24T02:08:16.976Z,28.27
2022-10-24T02:10:56.006Z,24.10
2022-10-24T02:13:42.270Z,28.33
2022-10-24T02:16:09.809Z,28.90
2022-10-24T02:18:39.548Z,30.13
2022-10-24T02:21:29.737Z,28.83
2022-10-24T02:24:03.091Z,28.00
2022-10-24T02:26:52.744Z,28.57
2022-10-24T02:29:32.289Z,24.90
2022-10-24T02:31:59.606Z,25.73
2022-10-24T02:34:32.239Z,26.63
2022-10-24T02:37:00.882Z,25.83
2022-10-24T02:39:28.406Z,29.77
2022-10-24T02:41:57.390Z,27.90
2022-10-24T02:44:25.943Z,22.73
2022-10-24T02:46:55.512Z,26.17
2022-10-24T02:49:22.404Z,32.37
2022-10-24T02:51:50.963Z,25.07
2022-10-24T02:54:18.209Z,26.23
2022-10-24T02:56:50.738Z,23.63
2022-10-24T02:59:17.755Z,24.50
2022-10-24T03:01:44.686Z,22.83
2022-10-24T03:04:12.269Z,22.03
2022-10-24T03:06:39.102Z,25.07
2022-10-24T03:09:05.943Z,26.07
2022-10-24T03:11:33.038Z,27.30
2022-10-24T03:13:59.936Z,23.97
2022-10-24T03:16:27.778Z,22.20
2022-10-24T03:18:55.170Z,26.13
2022-10-24T03:21:22.666Z,26.20
2022-10-24T03:23:49.885Z,26.10
2022-10-24T03:26:16.976Z,25.93
2022-10-24T03:28:43.822Z,30.83
2022-10-24T03:31:10.987Z,22.97
2022-10-24T03:33:37.763Z,26.83
2022-10-24T03:36:05.575Z,27.60
2022-10-24T03:38:32.489Z,26.97
2022-10-24T03:40:59.620Z,26.40
2022-10-24T03:43:26.697Z,23.80
2022-10-24T03:45:53.499Z,27.47
2022-10-24T03:48:20.343Z,29.23
2022-10-24T03:50:47.211Z,22.77
2022-10-24T03:53:14.048Z,26.27
2022-10-24T03:55:40.872Z,23.13
2022-10-24T03:58:07.738Z,22.80
2022-10-24T04:00:39.349Z,28.77
2022-10-24T04:03:10.809Z,24.70
2022-10-24T04:08:10.331Z,27.80
2022-10-24T04:10:37.217Z,26.23
2022-10-24T04:13:04.206Z,28.27
2022-10-24T04:15:31.284Z,28.13
2022-10-24T04:17:58.458Z,32.67
2022-10-24T04:20:25.596Z,28.30
2022-10-24T04:22:52.875Z,25.83
2022-10-24T04:25:19.858Z,29.83
2022-10-24T04:27:46.782Z,28.20
2022-10-24T04:30:16.525Z,24.90
2022-10-24T04:32:44.766Z,30.70
2022-10-24T04:35:12.419Z,28.87
2022-10-24T04:37:39.421Z,28.73
2022-10-24T04:40:06.941Z,23.93
2022-10-24T04:42:33.976Z,27.47
2022-10-24T04:45:01.033Z,26.80
2022-10-24T04:47:27.944Z,29.00
2022-10-24T04:49:55.054Z,28.20
2022-10-24T04:52:21.892Z,25.37
2022-10-24T04:54:48.722Z,27.43
2022-10-24T04:57:15.766Z,25.93
2022-10-24T04:59:42.785Z,31.27
2022-10-24T05:02:09.757Z,25.33
2022-10-24T05:04:36.829Z,26.00
2022-10-24T05:07:04.018Z,25.53
2022-10-24T05:09:31.209Z,24.83
2022-10-24T05:11:58.359Z,24.03
2022-10-24T05:14:25.544Z,25.07
2022-10-24T05:16:52.577Z,22.60
2022-10-24T05:19:19.862Z,24.60
2022-10-24T05:21:47.129Z,24.53
2022-10-24T05:24:14.018Z,25.60
2022-10-24T05:26:40.958Z,22.43
2022-10-24T05:31:40.017Z,24.40
2022-10-24T05:34:06.900Z,25.60
2022-10-24T05:36:34.187Z,22.27
2022-10-24T05:39:00.970Z,23.80
2022-10-24T05:41:27.868Z,24.00
2022-10-24T05:43:54.826Z,23.80
2022-10-24T05:46:22.143Z,23.23
2022-10-24T05:48:49.044Z,24.47
2022-10-24T05:51:16.113Z,23.10
2022-10-24T05:53:42.961Z,22.90
2022-10-24T05:56:10.289Z,22.93
2022-10-24T05:58:37.192Z,24.23
2022-10-24T06:01:04.257Z,23.07
2022-10-24T06:03:31.281Z,29.20
2022-10-24T06:05:58.338Z,25.57
2022-10-24T06:08:25.374Z,22.80
2022-10-24T06:10:53.650Z,25.27
2022-10-24T06:13:20.623Z,21.87
2022-10-24T06:15:47.600Z,22.50
2022-10-24T06:18:14.376Z,22.30
2022-10-24T06:20:41.311Z,22.63
2022-10-24T06:23:08.127Z,22.70
2022-10-24T06:25:35.041Z,24.73
2022-10-24T06:28:01.866Z,22.20
2022-10-24T06:30:28.896Z,24.57
2022-10-24T06:32:55.694Z,19.23
2022-10-24T06:35:22.703Z,19.97
2022-10-24T06:37:50.237Z,17.90
2022-10-24T06:40:18.538Z,24.03
2022-10-24T06:42:46.042Z,20.70
2022-10-24T06:45:13.463Z,19.60
2022-10-24T06:47:40.566Z,16.37
2022-10-24T06:50:09.613Z,17.57
2022-10-24T06:52:37.328Z,17.87
2022-10-24T06:55:04.896Z,15.77
2022-10-24T06:57:31.996Z,17.37
2022-10-24T06:59:58.960Z,14.33
2022-10-24T07:02:25.965Z,13.53
2022-10-24T07:04:53.009Z,17.43
2022-10-24T07:07:21.636Z,18.05
2022-10-24T07:09:54.385Z,13.27
2022-10-24T07:12:22.817Z,15.80
2022-10-24T07:14:50.551Z,13.80
2022-10-24T07:17:19.122Z,11.57
2022-10-24T07:19:46.197Z,12.25
2022-10-24T07:22:13.116Z,13.75
2022-10-24T07:24:40.005Z,12.45
2022-10-24T07:27:06.880Z,14.77
2022-10-24T07:29:33.731Z,18.63
2022-10-24T07:32:02.006Z,12.93
2022-10-24T07:34:28.980Z,13.48
2022-10-24T07:36:56.084Z,13.88
2022-10-24T07:39:22.879Z,13.20
2022-10-24T07:41:49.772Z,11.23
2022-10-24T07:44:16.556Z,12.63
2022-10-24T07:46:43.447Z,11.60
2022-10-24T07:49:10.645Z,13.18
2022-10-24T07:51:37.524Z,14.40
2022-10-24T07:54:04.702Z,12.32
2022-10-24T07:56:31.745Z,14.05
2022-10-24T07:59:05.788Z,15.45
2022-10-24T08:01:36.498Z,13.32
2022-10-24T08:04:03.531Z,14.68
2022-10-24T08:06:31.199Z,13.65
2022-10-24T08:08:58.762Z,16.00
2022-10-24T08:11:27.635Z,14.45
2022-10-24T08:13:57.338Z,11.35
2022-10-24T08:16:25.708Z,16.38
2022-10-24T08:18:55.423Z,13.18
2022-10-24T08:21:23.854Z,16.02
2022-10-24T08:23:53.072Z,14.85
2022-10-24T08:26:22.227Z,16.08
2022-10-24T08:28:49.766Z,14.00
2022-10-24T08:31:25.927Z,12.02
2022-10-24T08:33:54.917Z,13.38
2022-10-24T08:36:27.982Z,11.50
2022-10-24T08:38:55.999Z,11.63
2022-10-24T08:41:26.030Z,12.00
2022-10-24T08:43:55.889Z,13.02
2022-10-24T08:46:37.401Z,13.63
2022-10-24T08:49:54.561Z,14.40
2022-10-24T08:52:44.964Z,14.75
2022-10-24T08:55:36.965Z,12.73
2022-10-24T08:58:06.175Z,15.18
2022-10-24T09:00:39.645Z,13.65
2022-10-24T09:03:58.750Z,16.48
2022-10-24T09:06:28.813Z,18.40
2022-10-24T09:09:02.076Z,13.02
2022-10-24T09:11:52.497Z,13.85
2022-10-24T09:14:20.881Z,14.65
2022-10-24T09:16:54.577Z,12.48
2022-10-24T09:19:25.041Z,13.75
2022-10-24T09:21:54.850Z,15.07
2022-10-24T09:24:34.085Z,12.13
2022-10-24T09:27:04.533Z,13.48
2022-10-24T09:29:33.556Z,11.32
2022-10-24T09:32:02.105Z,11.85
2022-10-24T09:34:28.978Z,12.30
2022-10-24T09:36:56.054Z,10.63
2022-10-24T09:39:29.945Z,8.68
2022-10-24T09:41:58.277Z,11.15
2022-10-24T09:44:32.024Z,13.10
2022-10-24T09:46:59.634Z,12.90
2022-10-24T09:49:35.503Z,10.82
2022-10-24T09:52:17.441Z,11.20
2022-10-24T09:54:45.252Z,11.90
2022-10-24T09:57:12.171Z,10.40
2022-10-24T09:59:44.317Z,12.65
2022-10-24T10:02:12.805Z,15.48
2022-10-24T10:04:41.312Z,13.77
2022-10-24T10:07:20.007Z,11.45
2022-10-24T10:09:56.523Z,14.10
2022-10-24T10:12:39.814Z,10.45
2022-10-24T10:15:30.495Z,13.90
2022-10-24T10:18:05.155Z,12.98
2022-10-24T10:20:42.799Z,13.88
2022-10-24T10:23:31.652Z,11.20
2022-10-24T10:26:16.673Z,10.38
2022-10-24T10:28:57.353Z,9.48
2022-10-24T10:31:41.139Z,11.48
2022-10-24T10:34:21.202Z,9.95
2022-10-24T10:36:54.208Z,14.02
2022-10-24T10:39:28.044Z,17.58
2022-10-24T10:42:09.309Z,9.50
2022-10-24T10:44:57.159Z,9.32
2022-10-24T10:47:26.790Z,13.63
2022-10-24T10:49:57.935Z,11.02
2022-10-24T10:52:30.903Z,13.75
2022-10-24T10:55:40.780Z,12.88
2022-10-24T10:58:13.398Z,12.95
2022-10-24T11:00:48.372Z,12.23
2022-10-24T11:03:49.593Z,10.32
2022-10-24T11:06:52.058Z,13.00
2022-10-24T11:09:27.279Z,8.27
2022-10-24T11:12:12.331Z,8.85
2022-10-24T11:15:04.974Z,10.50
2022-10-24T11:17:53.419Z,10.80
2022-10-24T11:20:43.791Z,10.00
2022-10-24T11:23:16.543Z,8.32
2022-10-24T11:25:50.570Z,9.80
2022-10-24T11:28:17.267Z,11.90
2022-10-24T11:30:51.876Z,9.73
2022-10-24T11:33:25.128Z,9.02
2022-10-24T11:36:07.934Z,11.52
2022-10-24T11:38:42.269Z,8.68
2022-10-24T11:41:27.579Z,9.68
2022-10-24T11:43:59.027Z,8.65
2022-10-24T11:46:34.731Z,10.38
2022-10-24T11:49:17.378Z,10.75
2022-10-24T11:51:50.995Z,8.73
2022-10-24T11:54:25.346Z,7.78
2022-10-24T11:56:56.276Z,10.23
2022-10-24T11:59:24.520Z,11.40
2022-10-24T12:02:35.090Z,11.10
2022-10-24T12:05:42.058Z,8.27
2022-10-24T12:08:34.107Z,9.52
2022-10-24T12:11:39.048Z,8.23
2022-10-24T12:14:23.104Z,9.90
2022-10-24T12:17:08.152Z,9.43
2022-10-24T12:19:39.491Z,11.15
2022-10-24T12:22:07.304Z,8.98
2022-10-24T12:24:38.718Z,8.07
2022-10-24T12:27:27.376Z,7.25
2022-10-24T12:30:18.356Z,8.50
2022-10-24T12:32:59.920Z,7.75
2022-10-24T12:35:36.030Z,6.70
2022-10-24T12:38:34.614Z,8.07
2022-10-24T12:41:09.300Z,12.10
2022-10-24T12:43:38.413Z,8.00
2022-10-24T12:46:21.893Z,7.85
2022-10-24T12:48:59.415Z,8.45
2022-10-24T12:51:36.708Z,8.13
2022-10-24T12:54:03.622Z,8.13
2022-10-24T12:56:33.532Z,8.43
2022-10-24T12:59:03.035Z,8.18
2022-10-24T13:01:37.784Z,7.55
2022-10-24T13:04:34.376Z,7.60
2022-10-24T13:07:15.598Z,8.40
2022-10-24T13:10:00.915Z,8.88
2022-10-24T13:12:40.466Z,9.80
2022-10-24T13:15:44.410Z,7.22
2022-10-24T13:18:19.704Z,6.88
2022-10-24T13:20:51.796Z,8.70
2022-10-24T13:23:25.010Z,7.57
2022-10-24T13:25:57.177Z,10.15
2022-10-24T13:28:23.932Z,8.68
2022-10-24T13:30:54.762Z,10.10
2022-10-24T13:33:33.681Z,12.10
2022-10-24T13:36:09.875Z,8.98
2022-10-24T13:39:10.093Z,5.78
2022-10-24T13:41:42.149Z,7.57
2022-10-24T13:44:12.030Z,6.63
2022-10-24T13:46:47.984Z,9.85
2022-10-24T13:49:42.370Z,10.23
2022-10-24T13:52:38.493Z,11.20
2022-10-24T13:55:18.619Z,11.07
2022-10-24T13:58:02.034Z,6.05
2022-10-24T14:00:36.380Z,7.38
2022-10-24T14:03:17.065Z,7.05
2022-10-24T14:05:59.961Z,7.32
2022-10-24T14:08:33.539Z,11.45
2022-10-24T14:11:04.792Z,10.35
2022-10-24T14:13:45.857Z,8.00
2022-10-24T14:16:13.065Z,9.75
2022-10-24T14:18:41.435Z,16.27
2022-10-24T14:21:21.867Z,9.38
2022-10-24T14:23:57.502Z,10.13
2022-10-24T14:26:25.372Z,8.77
2022-10-24T14:29:00.069Z,11.27
2022-10-24T14:31:34.784Z,7.05
2022-10-24T14:34:05.916Z,13.40
2022-10-24T14:36:37.835Z,8.90
2022-10-24T14:39:05.888Z,9.32
2022-10-24T14:41:38.068Z,10.55
2022-10-24T14:44:06.075Z,11.10
2022-10-24T14:46:44.039Z,11.88
2022-10-24T14:49:26.070Z,11.52
2022-10-24T14:51:54.852Z,9.18
2022-10-24T14:54:24.068Z,11.57
2022-10-24T14:56:53.725Z,15.52
2022-10-24T14:59:27.952Z,16.23
2022-10-24T15:02:01.267Z,9.05
2022-10-24T15:04:51.306Z,12.65
2022-10-24T15:07:28.830Z,13.13
2022-10-24T15:09:58.865Z,17.25
2022-10-24T15:12:30.999Z,16.13
2022-10-24T15:15:22.329Z,12.23
2022-10-24T15:17:58.926Z,15.32
2022-10-24T15:20:29.934Z,15.98
2022-10-24T15:23:00.836Z,15.77
2022-10-24T15:25:40.673Z,15.63
2022-10-24T15:28:49.658Z,13.55
2022-10-24T15:31:19.963Z,14.50
2022-10-24T15:33:47.923Z,18.38
2022-10-24T15:36:21.020Z,21.70
2022-10-24T15:38:48.672Z,13.25
2022-10-24T15:41:16.245Z,15.20
2022-10-24T15:43:42.979Z,18.00
2022-10-24T15:46:09.715Z,15.15
2022-10-24T15:48:38.897Z,18.80
2022-10-24T15:51:06.158Z,18.15
2022-10-24T15:53:33.377Z,19.70
2022-10-24T15:56:00.136Z,25.30
2022-10-24T15:58:28.754Z,31.55
2022-10-24T16:00:55.713Z,45.00
2022-10-24T16:03:24.354Z,68.25
2022-10-24T16:05:55.263Z,77.55
2022-10-24T16:08:23.404Z,25.27
2022-10-24T16:10:51.862Z,24.50
2022-10-24T16:13:21.002Z,24.25
2022-10-24T16:15:48.682Z,43.05
2022-10-24T16:18:17.197Z,41.97
2022-10-24T16:20:44.015Z,40.75
2022-10-24T16:23:13.895Z,33.67
2022-10-24T16:25:40.855Z,34.10
2022-10-24T16:28:08.228Z,33.20
2022-10-24T16:30:38.918Z,27.88
2022-10-24T16:33:06.420Z,35.38
2022-10-24T16:35:36.286Z,36.67
2022-10-24T16:38:04.268Z,28.90
2022-10-24T16:40:31.347Z,25.70
2022-10-24T16:42:59.784Z,28.77
2022-10-24T16:45:26.841Z,28.08
2022-10-24T16:47:53.656Z,27.45
2022-10-24T16:50:24.414Z,25.90
2022-10-24T16:53:03.345Z,25.75
2022-10-24T16:55:31.385Z,28.50
2022-10-24T16:57:58.823Z,22.05
2022-10-24T17:00:26.191Z,27.70
2022-10-24T17:02:54.928Z,17.15
2022-10-24T17:05:24.574Z,27.63
2022-10-24T17:07:51.486Z,23.70
2022-10-24T17:10:20.771Z,22.45
2022-10-24T17:12:51.324Z,24.20
2022-10-24T17:15:22.085Z,18.73
2022-10-24T17:17:49.866Z,19.98
2022-10-24T17:20:17.690Z,21.73
2022-10-24T17:22:46.318Z,21.83
2022-10-24T17:25:26.514Z,25.08
2022-10-24T17:27:54.665Z,24.15
2022-10-24T17:30:24.307Z,20.48
2022-10-24T17:32:51.303Z,22.83
2022-10-24T17:35:20.672Z,23.08
2022-10-24T17:37:56.212Z,20.23
2022-10-24T17:40:26.866Z,22.88
2022-10-24T17:42:53.819Z,21.33
2022-10-24T17:45:23.679Z,18.77
2022-10-24T17:47:50.716Z,21.17
2022-10-24T17:50:18.414Z,16.30
2022-10-24T17:52:50.782Z,17.60
2022-10-24T17:55:46.355Z,15.95
2022-10-24T17:58:13.860Z,16.52
2022-10-24T18:00:41.132Z,17.40
2022-10-24T18:03:08.692Z,16.70
2022-10-24T18:05:38.039Z,15.15
2022-10-24T18:08:07.538Z,18.52
2022-10-24T18:10:36.504Z,18.10
2022-10-24T18:13:03.418Z,14.55
2022-10-24T18:15:30.148Z,14.73
2022-10-24T18:17:56.955Z,10.52
2022-10-24T18:20:23.969Z,13.60
2022-10-24T18:22:51.114Z,15.75
2022-10-24T18:25:22.701Z,16.88
2022-10-24T18:27:51.131Z,12.65
2022-10-24T18:30:21.523Z,13.65
2022-10-24T18:32:48.735Z,11.60
2022-10-24T18:35:15.846Z,13.20
2022-10-24T18:37:42.691Z,15.63
2022-10-24T18:40:10.331Z,14.73
2022-10-24T18:42:43.886Z,13.05
2022-10-24T18:45:17.196Z,11.63
2022-10-24T18:47:44.663Z,10.60
2022-10-24T18:50:16.472Z,16.25
2022-10-24T18:52:43.404Z,12.98
2022-10-24T18:55:21.750Z,15.00
2022-10-24T18:57:50.271Z,11.85
2022-10-24T19:00:23.256Z,13.50
2022-10-24T19:03:04.976Z,14.23
2022-10-24T19:05:37.679Z,15.30
2022-10-24T19:08:14.951Z,11.73
2022-10-24T19:10:42.410Z,12.75
2022-10-24T19:13:09.914Z,12.00
2022-10-24T19:15:40.182Z,13.15
2022-10-24T19:18:13.881Z,12.80
2022-10-24T19:20:42.324Z,10.82
2022-10-24T19:23:14.460Z,14.80
2022-10-24T19:25:41.739Z,15.98
2022-10-24T19:28:12.035Z,13.98
2022-10-24T19:30:42.331Z,16.92
2022-10-24T19:33:09.590Z,11.63
2022-10-24T19:35:45.189Z,13.57
2022-10-24T19:38:12.102Z,13.95
2022-10-24T19:40:54.227Z,12.32
2022-10-24T19:43:22.530Z,15.73
2022-10-24T19:46:07.180Z,12.60
2022-10-24T19:48:36.861Z,15.25
2022-10-24T19:51:13.342Z,14.60
2022-10-24T19:53:42.697Z,12.07
2022-10-24T19:56:12.821Z,12.55
2022-10-24T19:58:40.278Z,13.95
2022-10-24T20:01:15.789Z,12.68
2022-10-24T20:03:45.230Z,11.55
2022-10-24T20:06:12.932Z,14.20
2022-10-24T20:08:39.963Z,15.40
2022-10-24T20:11:07.575Z,13.55
2022-10-24T20:13:34.435Z,14.02
2022-10-24T20:16:04.993Z,12.70
2022-10-24T20:18:33.511Z,16.65
2022-10-24T20:21:04.035Z,13.27
2022-10-24T20:23:31.271Z,13.32
2022-10-24T20:26:01.961Z,14.15
2022-10-24T20:28:28.990Z,17.02
2022-10-24T20:30:56.154Z,16.63
2022-10-24T20:33:22.971Z,14.15
2022-10-24T20:35:49.682Z,14.80
2022-10-24T20:38:16.475Z,15.77
2022-10-24T20:40:43.245Z,15.70
2022-10-24T20:43:10.280Z,14.05
2022-10-24T20:45:40.884Z,15.68
2022-10-24T20:48:08.193Z,12.45
2022-10-24T20:50:35.805Z,16.73
2022-10-24T20:53:03.763Z,14.57
2022-10-24T20:55:43.426Z,15.73
2022-10-24T20:58:14.300Z,15.77
2022-10-24T21:03:12.164Z,14.48
2022-10-24T21:05:39.433Z,17.55
2022-10-24T21:08:06.948Z,17.08
2022-10-24T21:10:34.269Z,16.17
2022-10-24T21:13:01.226Z,13.93
2022-10-24T21:15:27.971Z,11.43
2022-10-24T21:17:54.888Z,13.40
2022-10-24T21:20:21.727Z,17.90
2022-10-24T21:22:48.557Z,14.52
2022-10-24T21:25:15.467Z,18.23
2022-10-24T21:27:42.205Z,13.20
2022-10-24T21:30:14.281Z,12.57
2022-10-24T21:32:42.229Z,15.52
2022-10-24T21:35:10.448Z,19.40
2022-10-24T21:37:37.298Z,15.25
2022-10-24T21:40:04.733Z,12.25
2022-10-24T21:42:33.153Z,19.33
2022-10-24T21:45:00.645Z,15.38
2022-10-24T21:47:28.399Z,15.05
2022-10-24T21:49:55.202Z,15.40
2022-10-24T21:52:22.088Z,16.58
2022-10-24T21:54:48.810Z,16.73
2022-10-24T21:57:15.717Z,16.10
2022-10-24T21:59:42.612Z,15.10
2022-10-24T22:02:09.668Z,15.90
2022-10-24T22:04:36.731Z,16.33
2022-10-24T22:07:05.941Z,16.10
2022-10-24T22:09:32.893Z,17.90
2022-10-24T22:12:00.703Z,14.50
2022-10-24T22:14:27.676Z,14.55
2022-10-24T22:16:54.955Z,16.58
2022-10-24T22:19:22.022Z,16.00
2022-10-24T22:21:51.033Z,14.77
2022-10-24T22:24:21.175Z,15.43
2022-10-24T22:26:49.439Z,15.90
2022-10-24T22:29:20.194Z,13.95
2022-10-24T22:31:47.745Z,16.50
2022-10-24T22:34:21.014Z,13.57
2022-10-24T22:37:12.831Z,17.08
2022-10-24T22:39:40.707Z,16.75
2022-10-24T22:42:12.412Z,14.75
2022-10-24T22:44:42.225Z,19.67
2022-10-24T22:47:13.131Z,17.98
2022-10-24T22:49:46.071Z,15.50
2022-10-24T22:52:13.479Z,13.02
2022-10-24T22:54:40.811Z,17.52
2022-10-24T22:57:08.134Z,12.07
2022-10-24T22:59:35.317Z,16.27
2022-10-24T23:02:14.261Z,14.82
2022-10-24T23:04:47.270Z,14.05
2022-10-24T23:07:27.705Z,14.50
2022-10-24T23:09:55.109Z,13.40
2022-10-24T23:12:22.791Z,16.30
2022-10-24T23:14:50.708Z,12.35
2022-10-24T23:17:26.046Z,16.02
2022-10-24T23:19:53.888Z,14.48
2022-10-24T23:22:27.460Z,18.63
2022-10-24T23:24:59.832Z,15.68
2022-10-24T23:27:40.755Z,12.07
2022-10-24T23:30:17.006Z,10.25
2022-10-24T23:32:44.963Z,14.68
2022-10-24T23:35:17.646Z,13.93
2022-10-24T23:37:52.403Z,13.20
2022-10-24T23:40:35.212Z,14.00
2022-10-24T23:43:04.185Z,17.80
2022-10-24T23:45:55.603Z,13.30
2022-10-24T23:48:51.679Z,14.43
2022-10-24T23:51:31.072Z,15.05
2022-10-24T23:53:58.583Z,15.40
2022-10-24T23:56:28.431Z,15.35
2022-10-24T23:58:55.860Z,13.48
